sensor_id;sensor_type;location;lat;lon;timestamp;P1;durP1;ratioP1;P2;durP2;ratioP2
38865;SDS011;62686;48.984;8.394;2022-12-08T00:02:27;64.03;;;28.43;;
38865;SDS011;62686;48.984;8.394;2022-12-08T00:04:56;68.00;;;30.23;;
38865;SDS011;62686;48.984;8.394;2022-12-08T00:07:48;65.80;;;29.90;;
38865;SDS011;62686;48.984;8.394;2022-12-08T00:10:33;66.63;;;30.10;;
38865;SDS011;62686;48.984;8.394;2022-12-08T00:13:16;67.07;;;30.57;;
38865;SDS011;62686;48.984;8.394;2022-12-08T00:15:45;69.27;;;31.90;;
38865;SDS011;62686;48.984;8.394;2022-12-08T00:18:13;73.40;;;33.33;;
38865;SDS011;62686;48.984;8.394;2022-12-08T00:20:41;68.83;;;32.17;;
38865;SDS011;62686;48.984;8.394;2022-12-08T00:23:12;79.73;;;33.73;;
38865;SDS011;62686;48.984;8.394;2022-12-08T00:25:43;66.83;;;29.57;;
38865;SDS011;62686;48.984;8.394;2022-12-08T00:28:11;71.80;;;30.10;;
38865;SDS011;62686;48.984;8.394;2022-12-08T00:30:39;68.27;;;30.33;;
38865;SDS011;62686;48.984;8.394;2022-12-08T00:33:08;71.30;;;29.83;;
38865;SDS011;62686;48.984;8.394;2022-12-08T00:35:36;68.40;;;30.53;;
38865;SDS011;62686;48.984;8.394;2022-12-08T00:38:08;66.43;;;27.90;;
38865;SDS011;62686;48.984;8.394;2022-12-08T00:40:38;79.53;;;32.63;;
38865;SDS011;62686;48.984;8.394;2022-12-08T00:43:10;61.93;;;26.40;;
38865;SDS011;62686;48.984;8.394;2022-12-08T00:45:39;67.37;;;26.80;;
38865;SDS011;62686;48.984;8.394;2022-12-08T00:48:07;55.83;;;25.80;;
38865;SDS011;62686;48.984;8.394;2022-12-08T00:50:35;67.37;;;29.33;;
38865;SDS011;62686;48.984;8.394;2022-12-08T00:53:04;59.77;;;27.13;;
38865;SDS011;62686;48.984;8.394;2022-12-08T00:55:32;56.67;;;26.97;;
38865;SDS011;62686;48.984;8.394;2022-12-08T00:58:02;56.13;;;25.53;;
38865;SDS011;62686;48.984;8.394;2022-12-08T01:00:30;54.07;;;23.57;;
38865;SDS011;62686;48.984;8.394;2022-12-08T01:02:58;51.47;;;24.03;;
38865;SDS011;62686;48.984;8.394;2022-12-08T01:05:26;57.00;;;24.97;;
38865;SDS011;62686;48.984;8.394;2022-12-08T01:07:54;55.43;;;23.83;;
38865;SDS011;62686;48.984;8.394;2022-12-08T01:10:22;52.13;;;24.77;;
38865;SDS011;62686;48.984;8.394;2022-12-08T01:12:50;55.60;;;25.90;;
38865;SDS011;62686;48.984;8.394;2022-12-08T01:15:19;55.77;;;24.47;;
38865;SDS011;62686;48.984;8.394;2022-12-08T01:17:47;58.13;;;24.47;;
38865;SDS011;62686;48.984;8.394;2022-12-08T01:20:16;52.77;;;24.13;;
38865;SDS011;62686;48.984;8.394;2022-12-08T01:22:44;52.37;;;25.07;;
38865;SDS011;62686;48.984;8.394;2022-12-08T01:25:12;53.87;;;24.73;;
38865;SDS011;62686;48.984;8.394;2022-12-08T01:27:40;55.13;;;24.57;;
38865;SDS011;62686;48.984;8.394;2022-12-08T01:30:08;55.93;;;24.37;;
38865;SDS011;62686;48.984;8.394;2022-12-08T01:32:38;53.83;;;24.17;;
38865;SDS011;62686;48.984;8.394;2022-12-08T01:35:07;46.33;;;21.97;;
38865;SDS011;62686;48.984;8.394;2022-12-08T01:37:35;45.73;;;22.57;;
38865;SDS011;62686;48.984;8.394;2022-12-08T01:40:04;54.70;;;22.27;;
38865;SDS011;62686;48.984;8.394;2022-12-08T01:42:33;54.87;;;23.40;;
38865;SDS011;62686;48.984;8.394;2022-12-08T01:45:04;50.13;;;22.00;;
38865;SDS011;62686;48.984;8.394;2022-12-08T01:47:35;54.20;;;23.60;;
38865;SDS011;62686;48.984;8.394;2022-12-08T01:50:09;48.60;;;23.13;;
38865;SDS011;62686;48.984;8.394;2022-12-08T01:52:40;56.13;;;23.50;;
38865;SDS011;62686;48.984;8.394;2022-12-08T01:55:14;51.87;;;24.10;;
38865;SDS011;62686;48.984;8.394;2022-12-08T01:57:45;51.43;;;23.03;;
38865;SDS011;62686;48.984;8.394;2022-12-08T02:00:16;50.73;;;22.97;;
38865;SDS011;62686;48.984;8.394;2022-12-08T02:02:50;52.17;;;22.77;;
38865;SDS011;62686;48.984;8.394;2022-12-08T02:05:22;50.03;;;22.83;;
38865;SDS011;62686;48.984;8.394;2022-12-08T02:07:52;47.27;;;23.33;;
38865;SDS011;62686;48.984;8.394;2022-12-08T02:10:22;47.03;;;22.83;;
38865;SDS011;62686;48.984;8.394;2022-12-08T02:12:51;51.97;;;22.87;;
38865;SDS011;62686;48.984;8.394;2022-12-08T02:15:21;49.83;;;22.57;;
38865;SDS011;62686;48.984;8.394;2022-12-08T02:18:01;55.00;;;23.30;;
38865;SDS011;62686;48.984;8.394;2022-12-08T02:20:40;48.93;;;22.33;;
38865;SDS011;62686;48.984;8.394;2022-12-08T02:23:21;52.13;;;22.40;;
38865;SDS011;62686;48.984;8.394;2022-12-08T02:26:14;50.07;;;21.87;;
38865;SDS011;62686;48.984;8.394;2022-12-08T02:29:07;55.83;;;23.17;;
38865;SDS011;62686;48.984;8.394;2022-12-08T02:32:06;50.43;;;21.00;;
38865;SDS011;62686;48.984;8.394;2022-12-08T02:34:50;48.53;;;21.27;;
38865;SDS011;62686;48.984;8.394;2022-12-08T02:37:25;46.47;;;21.80;;
38865;SDS011;62686;48.984;8.394;2022-12-08T02:39:58;44.03;;;20.50;;
38865;SDS011;62686;48.984;8.394;2022-12-08T02:42:30;40.23;;;21.00;;
38865;SDS011;62686;48.984;8.394;2022-12-08T02:45:05;41.33;;;20.63;;
38865;SDS011;62686;48.984;8.394;2022-12-08T02:47:38;44.67;;;20.07;;
38865;SDS011;62686;48.984;8.394;2022-12-08T02:50:08;46.17;;;19.63;;
38865;SDS011;62686;48.984;8.394;2022-12-08T02:52:38;41.67;;;20.23;;
38865;SDS011;62686;48.984;8.394;2022-12-08T02:55:09;43.03;;;21.23;;
38865;SDS011;62686;48.984;8.394;2022-12-08T02:57:49;46.00;;;20.00;;
38865;SDS011;62686;48.984;8.394;2022-12-08T03:00:23;41.80;;;19.77;;
38865;SDS011;62686;48.984;8.394;2022-12-08T03:02:57;38.17;;;19.23;;
38865;SDS011;62686;48.984;8.394;2022-12-08T03:05:40;49.80;;;20.97;;
38865;SDS011;62686;48.984;8.394;2022-12-08T03:08:23;41.73;;;18.93;;
38865;SDS011;62686;48.984;8.394;2022-12-08T03:11:02;45.33;;;19.50;;
38865;SDS011;62686;48.984;8.394;2022-12-08T03:13:36;43.27;;;18.63;;
38865;SDS011;62686;48.984;8.394;2022-12-08T03:16:08;40.60;;;19.57;;
38865;SDS011;62686;48.984;8.394;2022-12-08T03:18:41;40.93;;;19.60;;
38865;SDS011;62686;48.984;8.394;2022-12-08T03:21:15;42.40;;;19.07;;
38865;SDS011;62686;48.984;8.394;2022-12-08T03:23:47;42.37;;;19.00;;
38865;SDS011;62686;48.984;8.394;2022-12-08T03:26:21;44.13;;;20.33;;
38865;SDS011;62686;48.984;8.394;2022-12-08T03:28:55;44.30;;;19.00;;
38865;SDS011;62686;48.984;8.394;2022-12-08T03:31:24;35.53;;;17.40;;
38865;SDS011;62686;48.984;8.394;2022-12-08T03:33:56;36.37;;;18.20;;
38865;SDS011;62686;48.984;8.394;2022-12-08T03:36:27;41.17;;;18.30;;
38865;SDS011;62686;48.984;8.394;2022-12-08T03:38:55;39.47;;;18.53;;
38865;SDS011;62686;48.984;8.394;2022-12-08T03:41:23;35.80;;;19.07;;
38865;SDS011;62686;48.984;8.394;2022-12-08T03:43:51;41.73;;;19.50;;
38865;SDS011;62686;48.984;8.394;2022-12-08T03:46:21;39.57;;;19.27;;
38865;SDS011;62686;48.984;8.394;2022-12-08T03:48:49;45.47;;;20.00;;
38865;SDS011;62686;48.984;8.394;2022-12-08T03:51:18;44.23;;;20.97;;
38865;SDS011;62686;48.984;8.394;2022-12-08T03:53:48;40.93;;;19.60;;
38865;SDS011;62686;48.984;8.394;2022-12-08T03:56:18;41.70;;;19.07;;
38865;SDS011;62686;48.984;8.394;2022-12-08T03:58:52;53.27;;;21.50;;
38865;SDS011;62686;48.984;8.394;2022-12-08T04:01:21;42.97;;;20.47;;
38865;SDS011;62686;48.984;8.394;2022-12-08T04:03:49;49.17;;;22.00;;
38865;SDS011;62686;48.984;8.394;2022-12-08T04:06:18;41.73;;;19.93;;
38865;SDS011;62686;48.984;8.394;2022-12-08T04:08:48;43.60;;;19.40;;
38865;SDS011;62686;48.984;8.394;2022-12-08T04:11:17;47.50;;;21.27;;
38865;SDS011;62686;48.984;8.394;2022-12-08T04:13:46;40.57;;;20.37;;
38865;SDS011;62686;48.984;8.394;2022-12-08T04:16:14;42.30;;;21.17;;
38865;SDS011;62686;48.984;8.394;2022-12-08T04:18:43;43.03;;;20.27;;
38865;SDS011;62686;48.984;8.394;2022-12-08T04:21:11;41.87;;;20.47;;
38865;SDS011;62686;48.984;8.394;2022-12-08T04:23:40;43.07;;;20.97;;
38865;SDS011;62686;48.984;8.394;2022-12-08T04:26:09;45.67;;;21.73;;
38865;SDS011;62686;48.984;8.394;2022-12-08T04:28:38;51.13;;;23.53;;
38865;SDS011;62686;48.984;8.394;2022-12-08T04:31:06;49.70;;;24.17;;
38865;SDS011;62686;48.984;8.394;2022-12-08T04:33:34;54.80;;;25.10;;
38865;SDS011;62686;48.984;8.394;2022-12-08T04:36:03;58.83;;;25.23;;
38865;SDS011;62686;48.984;8.394;2022-12-08T04:38:34;58.73;;;25.40;;
38865;SDS011;62686;48.984;8.394;2022-12-08T04:41:02;60.77;;;25.40;;
38865;SDS011;62686;48.984;8.394;2022-12-08T04:43:31;61.07;;;26.10;;
38865;SDS011;62686;48.984;8.394;2022-12-08T04:45:59;56.77;;;24.50;;
38865;SDS011;62686;48.984;8.394;2022-12-08T04:48:27;56.60;;;25.87;;
38865;SDS011;62686;48.984;8.394;2022-12-08T04:50:55;54.80;;;25.27;;
38865;SDS011;62686;48.984;8.394;2022-12-08T04:53:23;51.23;;;24.80;;
38865;SDS011;62686;48.984;8.394;2022-12-08T04:55:52;57.03;;;25.23;;
38865;SDS011;62686;48.984;8.394;2022-12-08T04:58:21;55.63;;;25.47;;
38865;SDS011;62686;48.984;8.394;2022-12-08T05:00:50;56.70;;;25.93;;
38865;SDS011;62686;48.984;8.394;2022-12-08T05:03:18;60.20;;;27.03;;
38865;SDS011;62686;48.984;8.394;2022-12-08T05:05:50;63.50;;;27.47;;
38865;SDS011;62686;48.984;8.394;2022-12-08T05:08:18;66.10;;;27.73;;
38865;SDS011;62686;48.984;8.394;2022-12-08T05:10:46;60.80;;;27.47;;
38865;SDS011;62686;48.984;8.394;2022-12-08T05:13:14;65.73;;;29.00;;
38865;SDS011;62686;48.984;8.394;2022-12-08T05:15:42;59.37;;;26.80;;
38865;SDS011;62686;48.984;8.394;2022-12-08T05:18:12;68.63;;;29.10;;
38865;SDS011;62686;48.984;8.394;2022-12-08T05:20:40;71.43;;;29.30;;
38865;SDS011;62686;48.984;8.394;2022-12-08T05:23:08;62.83;;;28.03;;
38865;SDS011;62686;48.984;8.394;2022-12-08T05:25:36;61.97;;;28.23;;
38865;SDS011;62686;48.984;8.394;2022-12-08T05:28:04;63.33;;;28.73;;
38865;SDS011;62686;48.984;8.394;2022-12-08T05:30:52;65.50;;;29.10;;
38865;SDS011;62686;48.984;8.394;2022-12-08T05:33:22;158.40;;;70.57;;
38865;SDS011;62686;48.984;8.394;2022-12-08T05:35:50;76.73;;;30.93;;
38865;SDS011;62686;48.984;8.394;2022-12-08T05:38:18;70.93;;;30.97;;
38865;SDS011;62686;48.984;8.394;2022-12-08T05:40:46;65.23;;;28.57;;
38865;SDS011;62686;48.984;8.394;2022-12-08T05:43:15;69.23;;;30.37;;
38865;SDS011;62686;48.984;8.394;2022-12-08T05:45:43;67.50;;;30.50;;
38865;SDS011;62686;48.984;8.394;2022-12-08T05:48:12;91.63;;;38.83;;
38865;SDS011;62686;48.984;8.394;2022-12-08T05:50:45;76.03;;;32.97;;
38865;SDS011;62686;48.984;8.394;2022-12-08T05:53:14;144.10;;;55.20;;
38865;SDS011;62686;48.984;8.394;2022-12-08T05:55:43;105.63;;;46.00;;
38865;SDS011;62686;48.984;8.394;2022-12-08T05:58:12;68.20;;;31.47;;
38865;SDS011;62686;48.984;8.394;2022-12-08T06:00:41;68.93;;;31.20;;
38865;SDS011;62686;48.984;8.394;2022-12-08T06:03:10;68.43;;;31.57;;
38865;SDS011;62686;48.984;8.394;2022-12-08T06:05:39;64.87;;;31.60;;
38865;SDS011;62686;48.984;8.394;2022-12-08T06:08:09;64.57;;;30.03;;
38865;SDS011;62686;48.984;8.394;2022-12-08T06:10:38;56.90;;;29.03;;
38865;SDS011;62686;48.984;8.394;2022-12-08T06:13:07;59.40;;;29.23;;
38865;SDS011;62686;48.984;8.394;2022-12-08T06:15:36;60.27;;;28.03;;
38865;SDS011;62686;48.984;8.394;2022-12-08T06:18:07;68.93;;;30.70;;
38865;SDS011;62686;48.984;8.394;2022-12-08T06:20:36;67.13;;;30.37;;
38865;SDS011;62686;48.984;8.394;2022-12-08T06:23:04;62.27;;;28.93;;
38865;SDS011;62686;48.984;8.394;2022-12-08T06:25:34;67.37;;;34.23;;
38865;SDS011;62686;48.984;8.394;2022-12-08T06:28:03;68.17;;;34.57;;
38865;SDS011;62686;48.984;8.394;2022-12-08T06:30:32;67.00;;;30.77;;
38865;SDS011;62686;48.984;8.394;2022-12-08T06:33:00;57.77;;;29.00;;
38865;SDS011;62686;48.984;8.394;2022-12-08T06:35:28;55.57;;;27.80;;
38865;SDS011;62686;48.984;8.394;2022-12-08T06:37:57;62.37;;;30.63;;
38865;SDS011;62686;48.984;8.394;2022-12-08T06:40:25;58.70;;;29.70;;
38865;SDS011;62686;48.984;8.394;2022-12-08T06:42:54;56.50;;;28.73;;
38865;SDS011;62686;48.984;8.394;2022-12-08T06:45:22;53.33;;;28.80;;
38865;SDS011;62686;48.984;8.394;2022-12-08T06:47:50;57.90;;;29.17;;
38865;SDS011;62686;48.984;8.394;2022-12-08T06:50:18;56.00;;;28.70;;
38865;SDS011;62686;48.984;8.394;2022-12-08T06:52:46;56.40;;;28.53;;
38865;SDS011;62686;48.984;8.394;2022-12-08T06:55:21;59.37;;;28.57;;
38865;SDS011;62686;48.984;8.394;2022-12-08T06:58:09;64.77;;;31.60;;
38865;SDS011;62686;48.984;8.394;2022-12-08T07:00:37;63.47;;;29.37;;
38865;SDS011;62686;48.984;8.394;2022-12-08T07:03:07;56.67;;;28.50;;
38865;SDS011;62686;48.984;8.394;2022-12-08T07:05:36;57.93;;;28.67;;
38865;SDS011;62686;48.984;8.394;2022-12-08T07:08:05;50.90;;;27.27;;
38865;SDS011;62686;48.984;8.394;2022-12-08T07:10:35;52.00;;;27.40;;
38865;SDS011;62686;48.984;8.394;2022-12-08T07:13:03;57.97;;;29.83;;
38865;SDS011;62686;48.984;8.394;2022-12-08T07:15:33;58.97;;;30.33;;
38865;SDS011;62686;48.984;8.394;2022-12-08T07:18:01;55.17;;;28.40;;
38865;SDS011;62686;48.984;8.394;2022-12-08T07:20:29;66.40;;;29.40;;
38865;SDS011;62686;48.984;8.394;2022-12-08T07:22:57;57.27;;;28.63;;
38865;SDS011;62686;48.984;8.394;2022-12-08T07:25:25;57.30;;;27.93;;
38865;SDS011;62686;48.984;8.394;2022-12-08T07:27:53;56.07;;;28.03;;
38865;SDS011;62686;48.984;8.394;2022-12-08T07:30:21;49.30;;;27.53;;
38865;SDS011;62686;48.984;8.394;2022-12-08T07:32:50;54.73;;;28.27;;
38865;SDS011;62686;48.984;8.394;2022-12-08T07:35:18;52.83;;;29.30;;
38865;SDS011;62686;48.984;8.394;2022-12-08T07:37:48;52.47;;;27.17;;
38865;SDS011;62686;48.984;8.394;2022-12-08T07:40:16;54.20;;;27.10;;
38865;SDS011;62686;48.984;8.394;2022-12-08T07:42:44;52.03;;;27.23;;
38865;SDS011;62686;48.984;8.394;2022-12-08T07:45:12;50.47;;;27.77;;
38865;SDS011;62686;48.984;8.394;2022-12-08T07:47:40;50.87;;;27.23;;
38865;SDS011;62686;48.984;8.394;2022-12-08T07:50:10;55.93;;;26.93;;
38865;SDS011;62686;48.984;8.394;2022-12-08T07:52:38;53.50;;;27.23;;
38865;SDS011;62686;48.984;8.394;2022-12-08T07:55:06;48.00;;;26.13;;
38865;SDS011;62686;48.984;8.394;2022-12-08T07:57:35;47.93;;;26.60;;
38865;SDS011;62686;48.984;8.394;2022-12-08T08:00:04;45.27;;;25.63;;
38865;SDS011;62686;48.984;8.394;2022-12-08T08:02:32;50.83;;;26.87;;
38865;SDS011;62686;48.984;8.394;2022-12-08T08:05:01;46.13;;;25.47;;
38865;SDS011;62686;48.984;8.394;2022-12-08T08:07:30;48.33;;;26.20;;
38865;SDS011;62686;48.984;8.394;2022-12-08T08:09:58;45.10;;;25.53;;
38865;SDS011;62686;48.984;8.394;2022-12-08T08:12:27;41.50;;;24.47;;
38865;SDS011;62686;48.984;8.394;2022-12-08T08:14:56;42.60;;;25.70;;
38865;SDS011;62686;48.984;8.394;2022-12-08T08:17:24;41.77;;;24.87;;
38865;SDS011;62686;48.984;8.394;2022-12-08T08:19:53;42.17;;;24.03;;
38865;SDS011;62686;48.984;8.394;2022-12-08T08:22:21;41.67;;;25.30;;
38865;SDS011;62686;48.984;8.394;2022-12-08T08:24:50;43.53;;;25.67;;
38865;SDS011;62686;48.984;8.394;2022-12-08T08:27:19;41.17;;;24.30;;
38865;SDS011;62686;48.984;8.394;2022-12-08T08:29:47;39.07;;;24.90;;
38865;SDS011;62686;48.984;8.394;2022-12-08T08:32:15;39.80;;;24.43;;
38865;SDS011;62686;48.984;8.394;2022-12-08T08:34:43;40.60;;;23.83;;
38865;SDS011;62686;48.984;8.394;2022-12-08T08:37:12;39.33;;;24.20;;
38865;SDS011;62686;48.984;8.394;2022-12-08T08:39:40;37.30;;;23.30;;
38865;SDS011;62686;48.984;8.394;2022-12-08T08:42:10;37.73;;;22.63;;
38865;SDS011;62686;48.984;8.394;2022-12-08T08:44:38;36.07;;;21.20;;
38865;SDS011;62686;48.984;8.394;2022-12-08T08:47:06;38.00;;;22.93;;
38865;SDS011;62686;48.984;8.394;2022-12-08T08:49:34;34.70;;;21.13;;
38865;SDS011;62686;48.984;8.394;2022-12-08T08:52:03;32.37;;;22.90;;
38865;SDS011;62686;48.984;8.394;2022-12-08T08:54:32;30.97;;;20.77;;
38865;SDS011;62686;48.984;8.394;2022-12-08T08:57:00;34.33;;;21.10;;
38865;SDS011;62686;48.984;8.394;2022-12-08T08:59:30;33.57;;;20.47;;
38865;SDS011;62686;48.984;8.394;2022-12-08T09:01:58;31.47;;;20.77;;
38865;SDS011;62686;48.984;8.394;2022-12-08T09:04:26;29.90;;;20.17;;
38865;SDS011;62686;48.984;8.394;2022-12-08T09:06:54;28.70;;;19.67;;
38865;SDS011;62686;48.984;8.394;2022-12-08T09:09:22;29.33;;;18.47;;
38865;SDS011;62686;48.984;8.394;2022-12-08T09:11:50;29.37;;;18.67;;
38865;SDS011;62686;48.984;8.394;2022-12-08T09:14:20;26.90;;;17.77;;
38865;SDS011;62686;48.984;8.394;2022-12-08T09:16:50;26.87;;;18.13;;
38865;SDS011;62686;48.984;8.394;2022-12-08T09:19:18;28.10;;;18.17;;
38865;SDS011;62686;48.984;8.394;2022-12-08T09:21:47;26.20;;;18.33;;
38865;SDS011;62686;48.984;8.394;2022-12-08T09:24:15;24.03;;;17.03;;
38865;SDS011;62686;48.984;8.394;2022-12-08T09:26:43;23.97;;;16.67;;
38865;SDS011;62686;48.984;8.394;2022-12-08T09:29:12;24.13;;;16.50;;
38865;SDS011;62686;48.984;8.394;2022-12-08T09:31:40;21.87;;;15.27;;
38865;SDS011;62686;48.984;8.394;2022-12-08T09:34:11;23.83;;;16.33;;
38865;SDS011;62686;48.984;8.394;2022-12-08T09:36:39;25.10;;;17.20;;
38865;SDS011;62686;48.984;8.394;2022-12-08T09:39:07;27.43;;;17.53;;
38865;SDS011;62686;48.984;8.394;2022-12-08T09:41:36;26.67;;;16.77;;
38865;SDS011;62686;48.984;8.394;2022-12-08T09:44:22;25.60;;;17.57;;
38865;SDS011;62686;48.984;8.394;2022-12-08T09:47:13;25.13;;;17.13;;
38865;SDS011;62686;48.984;8.394;2022-12-08T09:49:52;28.20;;;17.87;;
38865;SDS011;62686;48.984;8.394;2022-12-08T09:52:27;29.83;;;19.87;;
38865;SDS011;62686;48.984;8.394;2022-12-08T09:54:59;26.80;;;17.50;;
38865;SDS011;62686;48.984;8.394;2022-12-08T09:57:30;26.57;;;17.80;;
38865;SDS011;62686;48.984;8.394;2022-12-08T10:00:00;25.63;;;16.63;;
38865;SDS011;62686;48.984;8.394;2022-12-08T10:02:33;25.23;;;16.97;;
38865;SDS011;62686;48.984;8.394;2022-12-08T10:05:03;23.80;;;17.03;;
38865;SDS011;62686;48.984;8.394;2022-12-08T10:07:34;28.93;;;16.73;;
38865;SDS011;62686;48.984;8.394;2022-12-08T10:10:12;23.67;;;15.70;;
38865;SDS011;62686;48.984;8.394;2022-12-08T10:12:53;23.90;;;16.87;;
38865;SDS011;62686;48.984;8.394;2022-12-08T10:15:31;24.83;;;16.60;;
38865;SDS011;62686;48.984;8.394;2022-12-08T10:18:12;21.50;;;15.00;;
38865;SDS011;62686;48.984;8.394;2022-12-08T10:20:45;23.07;;;15.27;;
38865;SDS011;62686;48.984;8.394;2022-12-08T10:23:19;22.60;;;14.50;;
38865;SDS011;62686;48.984;8.394;2022-12-08T10:25:54;22.60;;;14.87;;
38865;SDS011;62686;48.984;8.394;2022-12-08T10:28:26;21.20;;;14.60;;
38865;SDS011;62686;48.984;8.394;2022-12-08T10:30:54;27.63;;;16.30;;
38865;SDS011;62686;48.984;8.394;2022-12-08T10:33:22;20.13;;;14.43;;
38865;SDS011;62686;48.984;8.394;2022-12-08T10:35:52;22.70;;;14.67;;
38865;SDS011;62686;48.984;8.394;2022-12-08T10:38:25;19.40;;;13.67;;
38865;SDS011;62686;48.984;8.394;2022-12-08T10:40:59;19.23;;;13.60;;
38865;SDS011;62686;48.984;8.394;2022-12-08T10:43:31;22.20;;;14.47;;
38865;SDS011;62686;48.984;8.394;2022-12-08T10:46:07;20.93;;;13.57;;
38865;SDS011;62686;48.984;8.394;2022-12-08T10:48:45;21.67;;;15.90;;
38865;SDS011;62686;48.984;8.394;2022-12-08T10:51:24;23.33;;;14.23;;
38865;SDS011;62686;48.984;8.394;2022-12-08T10:53:55;22.47;;;14.53;;
38865;SDS011;62686;48.984;8.394;2022-12-08T10:56:24;20.53;;;13.77;;
38865;SDS011;62686;48.984;8.394;2022-12-08T10:59:09;21.83;;;14.07;;
38865;SDS011;62686;48.984;8.394;2022-12-08T11:01:41;21.43;;;14.20;;
38865;SDS011;62686;48.984;8.394;2022-12-08T11:04:14;21.10;;;15.73;;
38865;SDS011;62686;48.984;8.394;2022-12-08T11:06:46;22.47;;;16.90;;
38865;SDS011;62686;48.984;8.394;2022-12-08T11:09:23;23.87;;;17.07;;
38865;SDS011;62686;48.984;8.394;2022-12-08T11:11:59;24.47;;;16.30;;
38865;SDS011;62686;48.984;8.394;2022-12-08T11:14:34;21.87;;;15.33;;
38865;SDS011;62686;48.984;8.394;2022-12-08T11:17:14;22.60;;;15.30;;
38865;SDS011;62686;48.984;8.394;2022-12-08T11:19:53;23.50;;;15.27;;
38865;SDS011;62686;48.984;8.394;2022-12-08T11:22:25;21.97;;;14.97;;
38865;SDS011;62686;48.984;8.394;2022-12-08T11:24:57;21.03;;;14.17;;
38865;SDS011;62686;48.984;8.394;2022-12-08T11:27:27;22.03;;;15.40;;
38865;SDS011;62686;48.984;8.394;2022-12-08T11:29:55;19.67;;;14.37;;
38865;SDS011;62686;48.984;8.394;2022-12-08T11:32:23;22.27;;;16.00;;
38865;SDS011;62686;48.984;8.394;2022-12-08T11:34:52;20.87;;;14.77;;
38865;SDS011;62686;48.984;8.394;2022-12-08T11:37:27;23.03;;;13.03;;
38865;SDS011;62686;48.984;8.394;2022-12-08T11:40:02;17.10;;;12.73;;
38865;SDS011;62686;48.984;8.394;2022-12-08T11:42:34;15.50;;;11.93;;
38865;SDS011;62686;48.984;8.394;2022-12-08T11:45:11;16.13;;;11.43;;
38865;SDS011;62686;48.984;8.394;2022-12-08T11:47:44;20.37;;;11.47;;
38865;SDS011;62686;48.984;8.394;2022-12-08T11:50:19;14.87;;;10.17;;
38865;SDS011;62686;48.984;8.394;2022-12-08T11:52:55;14.37;;;10.13;;
38865;SDS011;62686;48.984;8.394;2022-12-08T11:55:28;12.93;;;9.77;;
38865;SDS011;62686;48.984;8.394;2022-12-08T11:58:03;13.93;;;10.13;;
38865;SDS011;62686;48.984;8.394;2022-12-08T12:00:40;13.17;;;9.07;;
38865;SDS011;62686;48.984;8.394;2022-12-08T12:03:13;13.40;;;8.90;;
38865;SDS011;62686;48.984;8.394;2022-12-08T12:05:54;12.43;;;8.83;;
38865;SDS011;62686;48.984;8.394;2022-12-08T12:08:44;11.90;;;7.60;;
38865;SDS011;62686;48.984;8.394;2022-12-08T12:11:22;8.33;;;6.63;;
38865;SDS011;62686;48.984;8.394;2022-12-08T12:14:19;10.20;;;7.43;;
38865;SDS011;62686;48.984;8.394;2022-12-08T12:17:01;11.00;;;7.00;;
38865;SDS011;62686;48.984;8.394;2022-12-08T12:19:32;8.37;;;6.57;;
38865;SDS011;62686;48.984;8.394;2022-12-08T12:22:07;9.97;;;6.90;;
38865;SDS011;62686;48.984;8.394;2022-12-08T12:24:42;10.67;;;7.23;;
38865;SDS011;62686;48.984;8.394;2022-12-08T12:27:19;12.27;;;6.60;;
38865;SDS011;62686;48.984;8.394;2022-12-08T12:29:52;9.37;;;6.47;;
38865;SDS011;62686;48.984;8.394;2022-12-08T12:32:26;10.67;;;6.03;;
38865;SDS011;62686;48.984;8.394;2022-12-08T12:35:11;8.73;;;6.43;;
38865;SDS011;62686;48.984;8.394;2022-12-08T12:37:42;8.17;;;5.70;;
38865;SDS011;62686;48.984;8.394;2022-12-08T12:40:14;7.40;;;5.43;;
38865;SDS011;62686;48.984;8.394;2022-12-08T12:42:45;8.67;;;6.07;;
38865;SDS011;62686;48.984;8.394;2022-12-08T12:45:24;10.57;;;7.33;;
38865;SDS011;62686;48.984;8.394;2022-12-08T12:50:47;8.67;;;6.43;;
38865;SDS011;62686;48.984;8.394;2022-12-08T13:02:15;8.83;;;6.13;;
38865;SDS011;62686;48.984;8.394;2022-12-08T13:04:54;7.90;;;5.60;;
38865;SDS011;62686;48.984;8.394;2022-12-08T13:07:26;9.87;;;5.40;;
38865;SDS011;62686;48.984;8.394;2022-12-08T13:09:58;7.93;;;6.17;;
38865;SDS011;62686;48.984;8.394;2022-12-08T13:12:30;7.67;;;5.57;;
38865;SDS011;62686;48.984;8.394;2022-12-08T13:15:01;10.67;;;5.60;;
38865;SDS011;62686;48.984;8.394;2022-12-08T13:17:32;8.37;;;5.63;;
38865;SDS011;62686;48.984;8.394;2022-12-08T13:20:04;8.33;;;5.93;;
38865;SDS011;62686;48.984;8.394;2022-12-08T13:22:47;8.93;;;5.70;;
38865;SDS011;62686;48.984;8.394;2022-12-08T13:25:45;7.53;;;5.10;;
38865;SDS011;62686;48.984;8.394;2022-12-08T13:28:24;9.10;;;5.77;;
38865;SDS011;62686;48.984;8.394;2022-12-08T13:30:55;8.17;;;5.50;;
38865;SDS011;62686;48.984;8.394;2022-12-08T13:33:28;7.53;;;5.40;;
38865;SDS011;62686;48.984;8.394;2022-12-08T13:36:04;7.20;;;5.37;;
38865;SDS011;62686;48.984;8.394;2022-12-08T13:38:38;7.03;;;4.87;;
38865;SDS011;62686;48.984;8.394;2022-12-08T13:41:08;7.70;;;5.13;;
38865;SDS011;62686;48.984;8.394;2022-12-08T13:43:44;7.77;;;5.23;;
38865;SDS011;62686;48.984;8.394;2022-12-08T13:46:36;9.90;;;5.23;;
38865;SDS011;62686;48.984;8.394;2022-12-08T13:49:29;7.83;;;5.07;;
38865;SDS011;62686;48.984;8.394;2022-12-08T13:52:30;7.50;;;5.07;;
38865;SDS011;62686;48.984;8.394;2022-12-08T13:55:20;8.83;;;5.00;;
38865;SDS011;62686;48.984;8.394;2022-12-08T13:58:17;7.10;;;4.70;;
38865;SDS011;62686;48.984;8.394;2022-12-08T14:00:56;9.00;;;5.00;;
38865;SDS011;62686;48.984;8.394;2022-12-08T14:03:29;6.67;;;4.83;;
38865;SDS011;62686;48.984;8.394;2022-12-08T14:06:01;8.27;;;5.10;;
38865;SDS011;62686;48.984;8.394;2022-12-08T14:08:38;6.77;;;4.97;;
38865;SDS011;62686;48.984;8.394;2022-12-08T14:11:27;7.37;;;5.10;;
38865;SDS011;62686;48.984;8.394;2022-12-08T14:14:01;6.43;;;4.87;;
38865;SDS011;62686;48.984;8.394;2022-12-08T14:16:35;8.67;;;4.97;;
38865;SDS011;62686;48.984;8.394;2022-12-08T14:19:05;7.53;;;5.17;;
38865;SDS011;62686;48.984;8.394;2022-12-08T14:21:45;6.47;;;4.83;;
38865;SDS011;62686;48.984;8.394;2022-12-08T14:24:24;7.27;;;4.90;;
38865;SDS011;62686;48.984;8.394;2022-12-08T14:26:54;8.07;;;5.10;;
38865;SDS011;62686;48.984;8.394;2022-12-08T14:29:39;10.97;;;6.00;;
38865;SDS011;62686;48.984;8.394;2022-12-08T14:32:21;6.87;;;5.00;;
38865;SDS011;62686;48.984;8.394;2022-12-08T14:34:56;7.97;;;5.13;;
38865;SDS011;62686;48.984;8.394;2022-12-08T14:37:27;8.53;;;5.93;;
38865;SDS011;62686;48.984;8.394;2022-12-08T14:39:58;9.47;;;5.77;;
38865;SDS011;62686;48.984;8.394;2022-12-08T14:42:28;8.93;;;5.90;;
38865;SDS011;62686;48.984;8.394;2022-12-08T14:44:57;7.07;;;5.67;;
38865;SDS011;62686;48.984;8.394;2022-12-08T14:47:30;9.57;;;5.60;;
38865;SDS011;62686;48.984;8.394;2022-12-08T14:50:00;9.90;;;6.23;;
38865;SDS011;62686;48.984;8.394;2022-12-08T14:52:28;7.90;;;5.80;;
38865;SDS011;62686;48.984;8.394;2022-12-08T14:54:57;8.80;;;5.93;;
38865;SDS011;62686;48.984;8.394;2022-12-08T14:57:30;10.37;;;6.63;;
38865;SDS011;62686;48.984;8.394;2022-12-08T15:00:08;9.93;;;6.80;;
38865;SDS011;62686;48.984;8.394;2022-12-08T15:02:46;8.70;;;6.50;;
38865;SDS011;62686;48.984;8.394;2022-12-08T15:05:15;9.63;;;7.03;;
38865;SDS011;62686;48.984;8.394;2022-12-08T15:07:47;15.47;;;6.33;;